createdAt,value
2018-08-13T00:00:42.852Z,25.10
2018-08-13T00:03:10.660Z,25.10
2018-08-13T00:05:38.315Z,25.10
2018-08-13T00:08:06.401Z,25.10
2018-08-13T00:10:34.028Z,25.10
2018-08-13T00:13:01.606Z,25.10
2018-08-13T00:15:29.233Z,25.20
2018-08-13T00:17:56.913Z,25.20
2018-08-13T00:20:24.711Z,25.20
2018-08-13T00:22:52.361Z,25.10
2018-08-13T00:25:20.018Z,25.10
2018-08-13T00:27:47.939Z,25.10
2018-08-13T00:30:15.539Z,25.10
2018-08-13T00:32:43.250Z,25.10
2018-08-13T00:35:11.240Z,25.10
2018-08-13T00:37:38.899Z,25.10
2018-08-13T00:40:07.991Z,25.20
2018-08-13T00:42:35.657Z,25.20
2018-08-13T00:45:03.405Z,25.20
2018-08-13T00:47:31.101Z,25.20
2018-08-13T00:49:58.871Z,25.20
2018-08-13T00:52:26.564Z,25.10
2018-08-13T00:54:54.173Z,25.10
2018-08-13T00:57:21.857Z,25.10
2018-08-13T00:59:49.517Z,25.00
2018-08-13T01:02:17.185Z,25.10
2018-08-13T01:04:44.829Z,25.10
2018-08-13T01:07:12.512Z,25.10
2018-08-13T01:09:40.195Z,25.20
2018-08-13T01:12:07.911Z,25.20
2018-08-13T01:14:35.568Z,25.10
2018-08-13T01:17:03.302Z,25.10
2018-08-13T01:19:31.024Z,25.10
2018-08-13T01:21:58.696Z,25.10
2018-08-13T01:24:26.370Z,25.10
2018-08-13T01:26:54.054Z,25.10
2018-08-13T01:29:21.772Z,25.00
2018-08-13T01:31:49.505Z,25.00
2018-08-13T01:34:17.124Z,25.00
2018-08-13T01:36:44.757Z,25.00
2018-08-13T01:39:12.453Z,25.00
2018-08-13T01:41:40.125Z,25.00
2018-08-13T01:44:07.826Z,25.00
2018-08-13T01:46:35.767Z,25.00
2018-08-13T01:49:03.658Z,25.00
2018-08-13T01:51:31.304Z,24.90
2018-08-13T01:53:58.926Z,24.90
2018-08-13T01:56:26.545Z,24.90
2018-08-13T01:58:54.115Z,24.90
2018-08-13T02:01:21.865Z,24.90
2018-08-13T02:03:49.419Z,24.90
2018-08-13T02:06:17.047Z,24.90
2018-08-13T02:08:44.807Z,25.00
2018-08-13T02:11:12.490Z,24.90
2018-08-13T02:13:40.203Z,24.90
2018-08-13T02:16:07.802Z,25.00
2018-08-13T02:18:35.478Z,25.00
2018-08-13T02:21:03.260Z,24.90
2018-08-13T02:23:30.970Z,24.90
2018-08-13T02:25:58.595Z,24.90
2018-08-13T02:28:26.185Z,24.90
2018-08-13T02:30:53.834Z,24.90
2018-08-13T02:33:21.421Z,24.90
2018-08-13T02:35:49.136Z,24.90
2018-08-13T02:38:16.786Z,24.90
2018-08-13T02:40:44.376Z,24.90
2018-08-13T02:43:11.987Z,24.90
2018-08-13T02:45:39.682Z,24.90
2018-08-13T02:48:07.474Z,24.90
2018-08-13T02:50:35.118Z,24.80
2018-08-13T02:53:02.818Z,24.80
2018-08-13T02:55:30.494Z,24.80
2018-08-13T02:57:58.316Z,24.90
2018-08-13T03:00:25.989Z,24.90
2018-08-13T03:02:53.671Z,24.90
2018-08-13T03:05:21.290Z,24.80
2018-08-13T03:07:48.928Z,24.80
2018-08-13T03:10:16.620Z,24.90
2018-08-13T03:12:44.257Z,24.90
2018-08-13T03:15:13.207Z,24.90
2018-08-13T03:17:40.890Z,24.80
2018-08-13T03:20:08.710Z,24.80
2018-08-13T03:22:36.371Z,24.80
2018-08-13T03:25:05.401Z,24.80
2018-08-13T03:27:33.111Z,24.70
2018-08-13T03:30:01.259Z,24.70
2018-08-13T03:32:29.140Z,24.70
2018-08-13T03:34:56.782Z,24.60
2018-08-13T03:37:24.541Z,24.60
2018-08-13T03:39:52.127Z,24.60
2018-08-13T03:42:19.732Z,24.50
2018-08-13T03:44:47.359Z,24.50
2018-08-13T03:47:15.030Z,24.50
2018-08-13T03:49:42.644Z,24.50
2018-08-13T03:52:11.063Z,24.50
2018-08-13T03:54:38.678Z,24.50
2018-08-13T03:57:06.302Z,24.60
2018-08-13T03:59:34.323Z,24.60
2018-08-13T04:02:01.944Z,24.60
2018-08-13T04:04:29.708Z,24.60
2018-08-13T04:06:57.395Z,24.70
2018-08-13T04:09:25.074Z,24.70
2018-08-13T04:11:52.993Z,24.60
2018-08-13T04:14:20.604Z,24.70
2018-08-13T04:17:08.910Z,24.70
2018-08-13T04:19:36.566Z,24.70
2018-08-13T04:22:04.223Z,24.60
2018-08-13T04:24:31.884Z,24.70
2018-08-13T04:27:00.206Z,24.70
2018-08-13T04:29:27.811Z,24.70
2018-08-13T04:31:55.440Z,24.70
2018-08-13T04:34:23.110Z,24.70
2018-08-13T04:36:50.802Z,24.60
2018-08-13T04:39:18.506Z,24.60
2018-08-13T04:41:46.138Z,24.60
2018-08-13T04:44:13.872Z,24.60
2018-08-13T04:46:41.564Z,24.60
2018-08-13T04:49:09.214Z,24.60
2018-08-13T04:51:36.855Z,24.60
2018-08-13T04:54:05.036Z,24.50
2018-08-13T04:56:32.794Z,24.50
2018-08-13T04:59:00.538Z,24.50
2018-08-13T05:01:28.067Z,24.50
2018-08-13T05:03:55.830Z,24.60
2018-08-13T05:06:23.508Z,24.50
2018-08-13T05:08:51.104Z,24.50
2018-08-13T05:11:18.892Z,24.60
2018-08-13T05:13:46.511Z,24.60
2018-08-13T05:16:14.170Z,24.60
2018-08-13T05:18:41.882Z,24.60
2018-08-13T05:21:09.549Z,24.60
2018-08-13T05:23:37.189Z,24.60
2018-08-13T05:26:04.897Z,24.60
2018-08-13T05:28:32.622Z,24.60
2018-08-13T05:31:00.460Z,24.50
2018-08-13T05:33:28.045Z,24.50
2018-08-13T05:35:55.708Z,24.50
2018-08-13T05:38:23.474Z,24.50
2018-08-13T05:40:51.140Z,24.60
2018-08-13T05:43:18.847Z,24.50
2018-08-13T05:45:46.493Z,24.50
2018-08-13T05:48:14.148Z,24.50
2018-08-13T05:50:41.837Z,24.50
2018-08-13T05:53:09.480Z,24.60
2018-08-13T05:55:37.173Z,24.50
2018-08-13T05:58:04.920Z,24.50
2018-08-13T06:00:32.593Z,24.60
2018-08-13T06:03:00.288Z,24.70
2018-08-13T06:05:28.011Z,24.60
2018-08-13T06:07:55.693Z,24.60
2018-08-13T06:10:23.331Z,24.60
2018-08-13T06:12:50.975Z,24.70
2018-08-13T06:15:18.731Z,24.70
2018-08-13T06:17:46.459Z,24.70
2018-08-13T06:20:14.138Z,24.70
2018-08-13T06:22:42.870Z,24.70
2018-08-13T06:25:10.873Z,24.70
2018-08-13T06:27:38.615Z,24.70
2018-08-13T06:30:08.059Z,24.80
2018-08-13T06:32:35.689Z,24.50
2018-08-13T06:35:03.385Z,24.90
2018-08-13T06:37:31.093Z,24.90
2018-08-13T06:39:58.699Z,24.90
2018-08-13T06:42:26.351Z,24.90
2018-08-13T06:44:54.009Z,24.90
2018-08-13T06:47:21.656Z,24.90
2018-08-13T06:49:49.270Z,24.90
2018-08-13T06:52:16.921Z,24.90
2018-08-13T06:54:44.617Z,24.90
2018-08-13T06:57:12.265Z,24.80
2018-08-13T06:59:39.893Z,24.80
2018-08-13T07:02:07.789Z,24.80
2018-08-13T07:04:35.424Z,24.90
2018-08-13T07:07:03.060Z,24.90
2018-08-13T07:09:30.726Z,24.90
2018-08-13T07:11:58.351Z,24.90
2018-08-13T07:14:26.093Z,24.90
2018-08-13T07:16:53.714Z,24.90
2018-08-13T07:19:21.361Z,25.00
2018-08-13T07:21:49.093Z,25.00
2018-08-13T07:24:16.837Z,25.10
2018-08-13T07:26:44.495Z,25.00
2018-08-13T07:29:12.199Z,25.00
2018-08-13T07:31:39.838Z,25.00
2018-08-13T07:34:07.452Z,25.00
2018-08-13T07:36:35.151Z,25.00
2018-08-13T07:39:02.983Z,24.90
2018-08-13T07:41:30.597Z,25.00
2018-08-13T07:43:58.209Z,24.90
2018-08-13T07:46:25.944Z,25.00
2018-08-13T07:48:53.606Z,25.00
2018-08-13T07:51:21.216Z,25.00
2018-08-13T07:53:49.070Z,25.10
2018-08-13T07:56:16.723Z,25.20
2018-08-13T07:58:44.316Z,25.10
2018-08-13T08:01:12.059Z,25.20
2018-08-13T08:03:39.703Z,25.20
2018-08-13T08:06:07.561Z,25.20
2018-08-13T08:08:35.353Z,25.20
2018-08-13T08:11:03.031Z,25.20
2018-08-13T08:13:30.681Z,25.30
2018-08-13T08:15:58.290Z,25.20
2018-08-13T08:18:26.061Z,25.30
2018-08-13T08:20:53.779Z,25.30
2018-08-13T08:23:21.436Z,25.30
2018-08-13T08:25:49.156Z,25.30
2018-08-13T08:28:17.445Z,25.40
2018-08-13T08:30:45.108Z,25.40
2018-08-13T08:33:12.808Z,25.50
2018-08-13T08:35:40.466Z,25.50
2018-08-13T08:38:08.157Z,25.50
2018-08-13T08:40:35.977Z,25.50
2018-08-13T08:43:03.577Z,25.60
2018-08-13T08:45:31.227Z,25.60
2018-08-13T08:47:58.945Z,25.60
2018-08-13T08:50:26.686Z,25.60
2018-08-13T08:52:54.433Z,25.60
2018-08-13T08:55:22.256Z,25.70
2018-08-13T08:57:50.629Z,25.70
2018-08-13T09:00:20.091Z,25.70
2018-08-13T09:02:47.807Z,25.80
2018-08-13T09:05:16.021Z,25.80
2018-08-13T09:07:44.515Z,25.80
2018-08-13T09:10:12.310Z,25.70
2018-08-13T09:12:39.944Z,25.70
2018-08-13T09:15:08.344Z,25.70
2018-08-13T09:17:41.804Z,25.70
2018-08-13T09:20:15.108Z,25.70
2018-08-13T09:22:48.553Z,25.70
2018-08-13T09:25:21.776Z,25.70
2018-08-13T09:27:55.036Z,25.70
2018-08-13T09:30:28.344Z,25.70
2018-08-13T09:33:01.636Z,25.70
2018-08-13T09:35:31.434Z,25.70
2018-08-13T09:37:59.131Z,25.70
2018-08-13T09:40:27.438Z,25.80
2018-08-13T09:42:55.506Z,25.80
2018-08-13T09:45:23.488Z,25.80
2018-08-13T09:47:51.128Z,25.80
2018-08-13T09:50:19.731Z,25.80
2018-08-13T09:52:48.114Z,25.80
2018-08-13T09:55:16.656Z,25.80
2018-08-13T09:57:45.380Z,25.80
2018-08-13T10:00:19.099Z,25.80
2018-08-13T10:02:47.556Z,25.90
2018-08-13T10:05:15.539Z,25.90
2018-08-13T10:07:43.488Z,25.90
2018-08-13T10:10:11.747Z,25.90
2018-08-13T10:12:40.334Z,25.90
2018-08-13T10:15:08.999Z,25.90
2018-08-13T10:17:37.017Z,25.90
2018-08-13T10:20:05.346Z,25.90
2018-08-13T10:22:33.006Z,25.90
2018-08-13T10:25:00.621Z,25.90
2018-08-13T10:27:28.257Z,25.90
2018-08-13T10:29:55.958Z,25.90
2018-08-13T10:32:23.757Z,25.90
2018-08-13T10:34:51.382Z,25.90
2018-08-13T10:37:19.107Z,26.00
2018-08-13T10:39:47.477Z,26.00
2018-08-13T10:42:15.092Z,26.00
2018-08-13T10:44:42.755Z,26.00
2018-08-13T10:47:10.350Z,26.00
2018-08-13T10:49:38.031Z,26.00
2018-08-13T10:52:05.670Z,26.00
2018-08-13T10:54:33.302Z,26.00
2018-08-13T10:57:01.100Z,26.00
2018-08-13T10:59:28.702Z,26.00
2018-08-13T11:01:56.313Z,26.00
2018-08-13T11:04:24.003Z,26.00
2018-08-13T11:06:51.641Z,26.00
2018-08-13T11:09:19.256Z,26.00
2018-08-13T11:11:46.900Z,25.90
2018-08-13T11:14:14.542Z,25.90
2018-08-13T11:16:42.160Z,25.90
2018-08-13T11:19:09.779Z,25.90
2018-08-13T11:21:39.655Z,25.90
2018-08-13T11:24:07.281Z,25.90
2018-08-13T11:26:34.924Z,25.90
2018-08-13T11:29:02.584Z,25.90
2018-08-13T11:31:30.304Z,25.90
2018-08-13T11:33:57.953Z,25.90
2018-08-13T11:36:25.548Z,25.90
2018-08-13T11:38:53.192Z,25.90
2018-08-13T11:41:20.937Z,25.90
2018-08-13T11:43:48.650Z,25.90
2018-08-13T11:46:16.308Z,25.90
2018-08-13T11:48:44.008Z,25.90
2018-08-13T11:51:11.602Z,25.90
2018-08-13T11:53:39.288Z,25.90
2018-08-13T11:56:07.075Z,25.90
2018-08-13T11:58:34.733Z,25.90
2018-08-13T12:01:02.649Z,25.90
2018-08-13T12:03:30.268Z,25.90
2018-08-13T12:05:57.946Z,25.90
2018-08-13T12:08:25.642Z,25.90
2018-08-13T12:10:53.302Z,25.90
2018-08-13T12:13:20.942Z,25.90
2018-08-13T12:15:48.544Z,25.90
2018-08-13T12:18:16.356Z,25.90
2018-08-13T12:20:44.060Z,25.90
2018-08-13T12:23:11.714Z,25.90
2018-08-13T12:25:39.428Z,25.90
2018-08-13T12:28:07.071Z,25.90
2018-08-13T12:30:34.717Z,25.90
2018-08-13T12:33:02.540Z,25.90
2018-08-13T12:35:30.179Z,25.90
2018-08-13T12:37:57.902Z,25.90
2018-08-13T12:40:25.528Z,25.90
2018-08-13T12:42:53.266Z,25.90
2018-08-13T12:45:20.899Z,25.90
2018-08-13T12:47:48.530Z,25.90
2018-08-13T12:50:17.290Z,25.90
2018-08-13T12:52:46.156Z,25.90
2018-08-13T12:55:14.224Z,25.90
2018-08-13T12:57:42.190Z,25.90
2018-08-13T13:00:11.189Z,25.90
2018-08-13T13:02:39.301Z,25.90
2018-08-13T13:05:07.781Z,25.90
2018-08-13T13:07:35.885Z,25.90
2018-08-13T13:10:04.172Z,25.90
2018-08-13T13:12:31.947Z,25.90
2018-08-13T13:14:59.599Z,25.90
2018-08-13T13:17:27.472Z,25.90
2018-08-13T13:19:55.143Z,25.90
2018-08-13T13:22:22.743Z,25.90
2018-08-13T13:24:50.484Z,25.90
2018-08-13T13:27:18.188Z,25.90
2018-08-13T13:29:45.889Z,25.90
2018-08-13T13:32:13.523Z,25.90
2018-08-13T13:34:41.221Z,25.90
2018-08-13T13:37:08.861Z,25.90
2018-08-13T13:39:36.529Z,25.90
2018-08-13T13:42:04.157Z,25.90
2018-08-13T13:44:31.846Z,25.90
2018-08-13T13:46:59.477Z,25.90
2018-08-13T13:49:27.057Z,25.90
2018-08-13T13:51:54.745Z,25.90
2018-08-13T13:54:22.418Z,25.90
2018-08-13T13:56:50.000Z,25.90
2018-08-13T13:59:17.618Z,25.90
2018-08-13T14:01:45.271Z,25.90
2018-08-13T14:04:12.920Z,25.90
2018-08-13T14:06:40.591Z,25.90
2018-08-13T14:09:09.150Z,25.90
2018-08-13T14:11:36.869Z,25.90
2018-08-13T14:14:04.752Z,25.90
2018-08-13T14:16:32.439Z,25.90
2018-08-13T14:19:00.194Z,25.90
2018-08-13T14:21:27.951Z,25.90
2018-08-13T14:23:55.620Z,25.90
2018-08-13T14:26:23.246Z,25.90
2018-08-13T14:28:50.909Z,25.90
2018-08-13T14:31:18.488Z,25.90
2018-08-13T14:33:46.092Z,25.90
2018-08-13T14:36:13.752Z,25.90
2018-08-13T14:38:41.429Z,25.90
2018-08-13T14:41:09.037Z,25.90
2018-08-13T14:43:36.821Z,25.90
2018-08-13T14:46:04.439Z,25.90
2018-08-13T14:48:32.338Z,25.90
2018-08-13T14:51:00.169Z,25.90
2018-08-13T14:53:27.789Z,25.90
2018-08-13T14:55:55.438Z,25.90
2018-08-13T14:58:23.057Z,25.90
2018-08-13T15:00:50.757Z,25.90
2018-08-13T15:03:18.492Z,25.90
2018-08-13T15:05:46.173Z,25.90
2018-08-13T15:08:13.783Z,25.90
2018-08-13T15:10:41.466Z,25.90
2018-08-13T15:13:09.214Z,25.90
2018-08-13T15:15:36.781Z,25.90
2018-08-13T15:18:04.591Z,25.90
2018-08-13T15:20:32.608Z,25.90
2018-08-13T15:23:00.241Z,25.90
2018-08-13T15:25:28.674Z,25.90
2018-08-13T15:27:56.403Z,25.90
2018-08-13T15:30:24.514Z,25.90
2018-08-13T15:32:52.883Z,25.90
2018-08-13T15:35:20.563Z,25.90
2018-08-13T15:37:48.624Z,25.90
2018-08-13T15:40:16.435Z,25.90
2018-08-13T15:42:44.115Z,25.90
2018-08-13T15:45:13.870Z,26.00
2018-08-13T15:47:41.539Z,26.00
2018-08-13T15:50:09.999Z,26.10
2018-08-13T15:52:37.641Z,26.10
2018-08-13T15:55:05.764Z,26.10
2018-08-13T15:57:33.446Z,26.20
2018-08-13T16:00:01.074Z,26.20
2018-08-13T16:02:28.734Z,26.30
2018-08-13T16:04:56.366Z,26.50
2018-08-13T16:07:24.159Z,26.70
2018-08-13T16:09:51.859Z,26.80
2018-08-13T16:12:19.539Z,27.00
2018-08-13T16:14:47.161Z,27.10
2018-08-13T16:17:14.771Z,27.30
2018-08-13T16:19:43.374Z,28.40
2018-08-13T16:22:11.787Z,28.70
2018-08-13T16:24:40.187Z,28.20
2018-08-13T16:27:08.596Z,28.00
2018-08-13T16:29:37.069Z,27.90
2018-08-13T16:32:05.576Z,27.90
2018-08-13T16:34:33.936Z,27.80
2018-08-13T16:37:02.396Z,27.60
2018-08-13T16:39:30.870Z,27.50
2018-08-13T16:41:59.351Z,27.30
2018-08-13T16:44:27.914Z,27.10
2018-08-13T16:46:56.694Z,27.00
2018-08-13T16:49:25.142Z,26.90
2018-08-13T16:51:53.562Z,26.90
2018-08-13T16:54:22.103Z,26.70
2018-08-13T16:56:50.510Z,26.70
2018-08-13T16:59:21.311Z,26.70
2018-08-13T17:01:49.718Z,26.60
2018-08-13T17:04:19.287Z,26.60
2018-08-13T17:06:47.848Z,26.50
2018-08-13T17:09:16.288Z,26.50
2018-08-13T17:11:44.771Z,26.50
2018-08-13T17:14:14.415Z,26.50
2018-08-13T17:16:52.753Z,26.40
2018-08-13T17:19:24.098Z,26.40
2018-08-13T17:22:00.253Z,26.40
2018-08-13T17:24:31.807Z,26.30
2018-08-13T17:27:09.607Z,26.30
2018-08-13T17:29:44.432Z,26.30
2018-08-13T17:32:15.733Z,26.30
2018-08-13T17:34:48.409Z,26.30
2018-08-13T17:37:21.535Z,26.30
2018-08-13T17:39:52.614Z,26.30
2018-08-13T17:42:26.859Z,26.20
2018-08-13T17:45:00.455Z,26.20
2018-08-13T17:47:33.283Z,26.20
2018-08-13T17:50:06.885Z,26.20
2018-08-13T17:52:40.482Z,26.20
2018-08-13T17:55:13.779Z,26.20
2018-08-13T17:57:49.888Z,26.20
2018-08-13T18:00:28.041Z,26.20
2018-08-13T18:03:04.305Z,26.20
2018-08-13T18:05:42.021Z,26.20
2018-08-13T18:08:31.264Z,26.20
2018-08-13T18:11:03.744Z,26.20
2018-08-13T18:13:42.891Z,26.20
2018-08-13T18:16:18.612Z,26.20
2018-08-13T18:21:52.755Z,26.20
2018-08-13T18:24:34.781Z,26.20
2018-08-13T18:27:10.090Z,26.20
2018-08-13T18:29:46.866Z,26.20
2018-08-13T18:32:20.224Z,26.20
2018-08-13T18:34:52.894Z,26.20
2018-08-13T18:37:24.988Z,26.20
2018-08-13T18:39:57.120Z,26.20
2018-08-13T18:42:28.910Z,26.20
2018-08-13T18:45:00.781Z,26.20
2018-08-13T18:47:38.195Z,26.20
2018-08-13T18:51:18.797Z,26.20
2018-08-13T18:53:52.132Z,26.20
2018-08-13T18:56:24.999Z,26.10
2018-08-13T18:59:02.773Z,26.10
2018-08-13T19:01:37.850Z,26.10
2018-08-13T19:04:10.319Z,26.10
2018-08-13T19:06:48.004Z,26.20
2018-08-13T19:09:19.216Z,26.10
2018-08-13T19:11:52.932Z,26.10
2018-08-13T19:14:24.207Z,26.10
2018-08-13T19:16:57.467Z,26.20
2018-08-13T19:19:35.908Z,26.10
2018-08-13T19:22:10.944Z,26.10
2018-08-13T19:24:43.927Z,26.10
2018-08-13T19:27:17.712Z,26.10
2018-08-13T19:30:15.704Z,26.10
2018-08-13T19:32:51.862Z,25.80
2018-08-13T19:35:41.107Z,25.40
2018-08-13T19:38:19.740Z,25.40
2018-08-13T19:40:56.317Z,25.20
2018-08-13T19:43:31.143Z,25.30
2018-08-13T19:46:27.030Z,25.30
2018-08-13T19:49:03.948Z,25.20
2018-08-13T19:51:40.404Z,25.20
2018-08-13T19:54:10.155Z,25.10
2018-08-13T20:00:07.190Z,24.90
2018-08-13T20:02:38.387Z,24.80
2018-08-13T20:05:14.184Z,24.70
2018-08-13T20:08:08.595Z,24.70
2018-08-13T20:11:02.120Z,24.70
2018-08-13T20:13:44.952Z,24.70
2018-08-13T20:17:05.498Z,24.80
2018-08-13T20:19:42.865Z,24.70
2018-08-13T20:22:18.145Z,24.80
2018-08-13T20:24:52.242Z,24.90
2018-08-13T20:27:33.441Z,24.90
2018-08-13T20:30:03.790Z,25.00
2018-08-13T20:32:36.601Z,25.00
2018-08-13T20:35:07.226Z,25.00
2018-08-13T20:37:39.123Z,25.00
2018-08-13T20:40:14.756Z,24.90
2018-08-13T20:42:45.801Z,24.90
2018-08-13T20:45:20.518Z,24.90
2018-08-13T20:47:51.482Z,24.90
2018-08-13T20:53:25.769Z,24.90
2018-08-13T20:55:58.394Z,24.90
2018-08-13T20:58:29.874Z,24.90
2018-08-13T21:01:05.784Z,24.90
2018-08-13T21:03:37.063Z,24.90
2018-08-13T21:06:15.170Z,24.90
2018-08-13T21:08:48.766Z,24.90
2018-08-13T21:11:20.778Z,24.90
2018-08-13T21:13:51.856Z,24.90
2018-08-13T21:16:26.475Z,24.90
2018-08-13T21:18:58.886Z,24.70
2018-08-13T21:21:35.850Z,24.70
2018-08-13T21:24:06.891Z,24.60
2018-08-13T21:26:36.984Z,24.50
2018-08-13T21:29:07.067Z,24.50
2018-08-13T21:31:37.827Z,24.50
2018-08-13T21:34:08.708Z,24.50
2018-08-13T21:36:41.260Z,24.50
2018-08-13T21:39:11.189Z,24.40
2018-08-13T21:41:43.227Z,24.30
2018-08-13T21:44:16.684Z,24.20
2018-08-13T21:46:47.913Z,24.20
2018-08-13T21:49:24.827Z,24.20
2018-08-13T21:52:00.840Z,24.40
2018-08-13T21:54:34.196Z,24.40
2018-08-13T21:57:04.391Z,24.50
2018-08-13T21:59:38.608Z,24.60
2018-08-13T22:02:16.199Z,24.70
2018-08-13T22:04:46.773Z,24.80
2018-08-13T22:07:16.462Z,24.80
2018-08-13T22:09:47.493Z,24.90
2018-08-13T22:12:21.578Z,24.90
2018-08-13T22:14:51.951Z,25.00
2018-08-13T22:17:23.407Z,25.00
2018-08-13T22:19:54.179Z,25.00
2018-08-13T22:22:23.810Z,25.00
2018-08-13T22:25:10.680Z,24.90
2018-08-13T22:27:41.132Z,24.90
2018-08-13T22:30:14.713Z,24.90
2018-08-13T22:33:00.455Z,24.90
2018-08-13T22:35:32.545Z,24.90
2018-08-13T22:38:06.424Z,24.90
2018-08-13T22:41:16.454Z,24.90
2018-08-13T22:43:53.360Z,24.80
2018-08-13T22:46:36.100Z,24.90
2018-08-13T22:49:09.526Z,24.90
2018-08-13T22:51:48.448Z,24.90
2018-08-13T22:54:24.207Z,24.90
2018-08-13T22:57:03.838Z,24.90
2018-08-13T22:59:36.755Z,24.90
2018-08-13T23:02:09.550Z,24.90
2018-08-13T23:04:46.182Z,25.00
2018-08-13T23:07:26.800Z,25.00
2018-08-13T23:10:05.918Z,25.00
2018-08-13T23:13:08.233Z,25.00
2018-08-13T23:18:26.859Z,25.00
2018-08-13T23:20:57.588Z,25.10
2018-08-13T23:23:28.537Z,25.00
2018-08-13T23:25:59.372Z,25.10
2018-08-13T23:28:30.360Z,25.10
2018-08-13T23:30:59.096Z,25.10
2018-08-13T23:33:29.177Z,25.00
2018-08-13T23:35:58.439Z,25.00
2018-08-13T23:38:29.613Z,25.00
2018-08-13T23:40:58.681Z,24.90
2018-08-13T23:43:29.313Z,24.80
2018-08-13T23:46:35.769Z,24.70
2018-08-13T23:49:22.910Z,24.70
2018-08-13T23:52:18.820Z,24.70
2018-08-13T23:54:55.494Z,24.70
2018-08-13T23:57:26.214Z,24.70
